sensor_id;sensor_type;location;lat;lon;timestamp;P1;durP1;ratioP1;P2;durP2;ratioP2
4726;SDS011;2377;51.734;8.950;2022-08-19T00:00:38;11.83;;;6.40;;
4726;SDS011;2377;51.734;8.950;2022-08-19T00:03:06;8.07;;;6.33;;
4726;SDS011;2377;51.734;8.950;2022-08-19T00:05:33;12.50;;;5.93;;
4726;SDS011;2377;51.734;8.950;2022-08-19T00:08:00;10.20;;;6.33;;
4726;SDS011;2377;51.734;8.950;2022-08-19T00:10:28;9.77;;;6.20;;
4726;SDS011;2377;51.734;8.950;2022-08-19T00:12:55;9.97;;;5.83;;
4726;SDS011;2377;51.734;8.950;2022-08-19T00:15:22;8.07;;;6.13;;
4726;SDS011;2377;51.734;8.950;2022-08-19T00:17:50;9.33;;;6.20;;
4726;SDS011;2377;51.734;8.950;2022-08-19T00:20:18;12.30;;;6.50;;
4726;SDS011;2377;51.734;8.950;2022-08-19T00:22:47;9.77;;;6.07;;
4726;SDS011;2377;51.734;8.950;2022-08-19T00:25:15;12.47;;;6.57;;
4726;SDS011;2377;51.734;8.950;2022-08-19T00:27:43;9.00;;;6.20;;
4726;SDS011;2377;51.734;8.950;2022-08-19T00:30:10;8.03;;;5.60;;
4726;SDS011;2377;51.734;8.950;2022-08-19T00:32:38;11.27;;;7.87;;
4726;SDS011;2377;51.734;8.950;2022-08-19T00:35:08;9.93;;;7.73;;
4726;SDS011;2377;51.734;8.950;2022-08-19T00:37:36;11.07;;;6.70;;
4726;SDS011;2377;51.734;8.950;2022-08-19T00:40:08;10.77;;;7.80;;
4726;SDS011;2377;51.734;8.950;2022-08-19T00:42:37;12.33;;;7.07;;
4726;SDS011;2377;51.734;8.950;2022-08-19T00:45:08;9.07;;;5.93;;
4726;SDS011;2377;51.734;8.950;2022-08-19T00:47:41;9.53;;;6.70;;
4726;SDS011;2377;51.734;8.950;2022-08-19T00:50:10;12.80;;;10.00;;
4726;SDS011;2377;51.734;8.950;2022-08-19T00:52:41;14.63;;;9.17;;
4726;SDS011;2377;51.734;8.950;2022-08-19T00:55:13;17.10;;;9.13;;
4726;SDS011;2377;51.734;8.950;2022-08-19T00:57:47;13.87;;;9.33;;
4726;SDS011;2377;51.734;8.950;2022-08-19T01:00:21;16.50;;;10.53;;
4726;SDS011;2377;51.734;8.950;2022-08-19T01:02:50;16.70;;;9.83;;
4726;SDS011;2377;51.734;8.950;2022-08-19T01:05:21;18.33;;;10.50;;
4726;SDS011;2377;51.734;8.950;2022-08-19T01:07:53;13.43;;;9.00;;
4726;SDS011;2377;51.734;8.950;2022-08-19T01:10:24;13.33;;;10.50;;
4726;SDS011;2377;51.734;8.950;2022-08-19T01:12:55;12.33;;;9.60;;
4726;SDS011;2377;51.734;8.950;2022-08-19T01:15:26;11.50;;;7.80;;
4726;SDS011;2377;51.734;8.950;2022-08-19T01:17:57;16.60;;;8.80;;
4726;SDS011;2377;51.734;8.950;2022-08-19T01:20:32;11.40;;;8.57;;
4726;SDS011;2377;51.734;8.950;2022-08-19T01:23:01;12.57;;;7.90;;
4726;SDS011;2377;51.734;8.950;2022-08-19T01:25:30;9.70;;;7.10;;
4726;SDS011;2377;51.734;8.950;2022-08-19T01:28:06;9.37;;;7.30;;
4726;SDS011;2377;51.734;8.950;2022-08-19T01:30:34;9.17;;;6.63;;
4726;SDS011;2377;51.734;8.950;2022-08-19T01:33:02;9.07;;;6.37;;
4726;SDS011;2377;51.734;8.950;2022-08-19T01:35:31;10.40;;;7.23;;
4726;SDS011;2377;51.734;8.950;2022-08-19T01:38:03;11.60;;;7.20;;
4726;SDS011;2377;51.734;8.950;2022-08-19T01:40:37;11.10;;;7.13;;
4726;SDS011;2377;51.734;8.950;2022-08-19T01:43:07;10.03;;;6.37;;
4726;SDS011;2377;51.734;8.950;2022-08-19T01:45:34;11.87;;;8.27;;
4726;SDS011;2377;51.734;8.950;2022-08-19T01:48:05;9.93;;;6.77;;
4726;SDS011;2377;51.734;8.950;2022-08-19T01:50:34;8.87;;;6.80;;
4726;SDS011;2377;51.734;8.950;2022-08-19T01:53:03;8.30;;;6.10;;
4726;SDS011;2377;51.734;8.950;2022-08-19T01:55:35;8.47;;;6.53;;
4726;SDS011;2377;51.734;8.950;2022-08-19T01:58:06;10.83;;;6.50;;
4726;SDS011;2377;51.734;8.950;2022-08-19T02:00:38;9.47;;;6.77;;
4726;SDS011;2377;51.734;8.950;2022-08-19T02:03:07;9.03;;;6.23;;
4726;SDS011;2377;51.734;8.950;2022-08-19T02:05:36;10.70;;;7.00;;
4726;SDS011;2377;51.734;8.950;2022-08-19T02:08:05;9.00;;;6.50;;
4726;SDS011;2377;51.734;8.950;2022-08-19T02:10:33;7.90;;;6.50;;
4726;SDS011;2377;51.734;8.950;2022-08-19T02:13:05;9.63;;;6.40;;
4726;SDS011;2377;51.734;8.950;2022-08-19T02:15:33;9.20;;;6.40;;
4726;SDS011;2377;51.734;8.950;2022-08-19T02:18:00;9.60;;;6.27;;
4726;SDS011;2377;51.734;8.950;2022-08-19T02:20:27;9.83;;;6.87;;
4726;SDS011;2377;51.734;8.950;2022-08-19T02:22:54;10.03;;;6.87;;
4726;SDS011;2377;51.734;8.950;2022-08-19T02:25:22;10.53;;;7.37;;
4726;SDS011;2377;51.734;8.950;2022-08-19T02:27:49;11.80;;;7.80;;
4726;SDS011;2377;51.734;8.950;2022-08-19T02:30:17;11.33;;;7.53;;
4726;SDS011;2377;51.734;8.950;2022-08-19T02:32:44;12.23;;;7.27;;
4726;SDS011;2377;51.734;8.950;2022-08-19T02:35:11;9.90;;;7.40;;
4726;SDS011;2377;51.734;8.950;2022-08-19T02:37:40;11.73;;;7.43;;
4726;SDS011;2377;51.734;8.950;2022-08-19T02:40:27;12.37;;;6.83;;
4726;SDS011;2377;51.734;8.950;2022-08-19T02:42:58;8.50;;;6.30;;
4726;SDS011;2377;51.734;8.950;2022-08-19T02:45:26;11.30;;;7.40;;
4726;SDS011;2377;51.734;8.950;2022-08-19T02:47:53;11.20;;;7.83;;
4726;SDS011;2377;51.734;8.950;2022-08-19T02:50:21;11.00;;;7.60;;
4726;SDS011;2377;51.734;8.950;2022-08-19T02:52:48;9.80;;;7.00;;
4726;SDS011;2377;51.734;8.950;2022-08-19T02:55:16;12.83;;;7.13;;
4726;SDS011;2377;51.734;8.950;2022-08-19T02:57:45;10.00;;;6.40;;
4726;SDS011;2377;51.734;8.950;2022-08-19T03:00:13;9.73;;;6.73;;
4726;SDS011;2377;51.734;8.950;2022-08-19T03:02:41;10.03;;;6.70;;
4726;SDS011;2377;51.734;8.950;2022-08-19T03:05:08;8.77;;;6.50;;
4726;SDS011;2377;51.734;8.950;2022-08-19T03:07:36;9.50;;;7.00;;
4726;SDS011;2377;51.734;8.950;2022-08-19T03:10:04;10.37;;;7.17;;
4726;SDS011;2377;51.734;8.950;2022-08-19T03:12:34;10.57;;;7.00;;
4726;SDS011;2377;51.734;8.950;2022-08-19T03:15:05;9.73;;;7.53;;
4726;SDS011;2377;51.734;8.950;2022-08-19T03:17:34;10.10;;;7.60;;
4726;SDS011;2377;51.734;8.950;2022-08-19T03:20:11;10.30;;;7.27;;
4726;SDS011;2377;51.734;8.950;2022-08-19T03:22:38;9.50;;;7.03;;
4726;SDS011;2377;51.734;8.950;2022-08-19T03:25:06;9.23;;;7.50;;
4726;SDS011;2377;51.734;8.950;2022-08-19T03:27:34;9.33;;;6.60;;
4726;SDS011;2377;51.734;8.950;2022-08-19T03:30:01;7.40;;;6.10;;
4726;SDS011;2377;51.734;8.950;2022-08-19T03:32:30;9.17;;;7.00;;
4726;SDS011;2377;51.734;8.950;2022-08-19T03:34:57;9.73;;;6.80;;
4726;SDS011;2377;51.734;8.950;2022-08-19T03:37:24;9.30;;;7.27;;
4726;SDS011;2377;51.734;8.950;2022-08-19T03:39:52;11.20;;;7.40;;
4726;SDS011;2377;51.734;8.950;2022-08-19T03:42:19;8.00;;;6.80;;
4726;SDS011;2377;51.734;8.950;2022-08-19T03:44:46;11.20;;;7.80;;
4726;SDS011;2377;51.734;8.950;2022-08-19T03:47:13;9.17;;;7.03;;
4726;SDS011;2377;51.734;8.950;2022-08-19T03:49:43;9.03;;;7.00;;
4726;SDS011;2377;51.734;8.950;2022-08-19T03:52:11;10.63;;;6.90;;
4726;SDS011;2377;51.734;8.950;2022-08-19T03:54:39;9.17;;;6.37;;
4726;SDS011;2377;51.734;8.950;2022-08-19T03:57:06;10.10;;;6.30;;
4726;SDS011;2377;51.734;8.950;2022-08-19T03:59:34;9.10;;;6.23;;
4726;SDS011;2377;51.734;8.950;2022-08-19T04:02:05;8.97;;;6.67;;
4726;SDS011;2377;51.734;8.950;2022-08-19T04:04:36;8.27;;;6.13;;
4726;SDS011;2377;51.734;8.950;2022-08-19T04:07:05;8.13;;;6.30;;
4726;SDS011;2377;51.734;8.950;2022-08-19T04:09:33;9.37;;;5.60;;
4726;SDS011;2377;51.734;8.950;2022-08-19T04:12:02;7.80;;;6.07;;
4726;SDS011;2377;51.734;8.950;2022-08-19T04:14:31;9.53;;;6.00;;
4726;SDS011;2377;51.734;8.950;2022-08-19T04:17:00;9.20;;;6.27;;
4726;SDS011;2377;51.734;8.950;2022-08-19T04:19:30;16.27;;;7.40;;
4726;SDS011;2377;51.734;8.950;2022-08-19T04:21:58;9.40;;;7.07;;
4726;SDS011;2377;51.734;8.950;2022-08-19T04:24:27;9.33;;;6.97;;
4726;SDS011;2377;51.734;8.950;2022-08-19T04:26:54;9.47;;;6.90;;
4726;SDS011;2377;51.734;8.950;2022-08-19T04:29:22;11.30;;;7.40;;
4726;SDS011;2377;51.734;8.950;2022-08-19T04:31:52;10.03;;;8.07;;
4726;SDS011;2377;51.734;8.950;2022-08-19T04:34:22;10.77;;;9.00;;
4726;SDS011;2377;51.734;8.950;2022-08-19T04:36:52;13.03;;;9.17;;
4726;SDS011;2377;51.734;8.950;2022-08-19T04:39:23;12.60;;;9.73;;
4726;SDS011;2377;51.734;8.950;2022-08-19T04:42:09;13.17;;;9.43;;
4726;SDS011;2377;51.734;8.950;2022-08-19T04:44:54;16.90;;;10.03;;
4726;SDS011;2377;51.734;8.950;2022-08-19T04:47:21;14.10;;;11.10;;
4726;SDS011;2377;51.734;8.950;2022-08-19T04:49:48;16.53;;;10.57;;
4726;SDS011;2377;51.734;8.950;2022-08-19T04:52:15;14.13;;;10.70;;
4726;SDS011;2377;51.734;8.950;2022-08-19T04:54:44;14.90;;;10.40;;
4726;SDS011;2377;51.734;8.950;2022-08-19T04:57:11;16.07;;;11.50;;
4726;SDS011;2377;51.734;8.950;2022-08-19T04:59:38;14.53;;;11.50;;
4726;SDS011;2377;51.734;8.950;2022-08-19T05:02:06;18.90;;;12.10;;
4726;SDS011;2377;51.734;8.950;2022-08-19T05:04:34;17.07;;;11.00;;
4726;SDS011;2377;51.734;8.950;2022-08-19T05:07:04;15.73;;;11.27;;
4726;SDS011;2377;51.734;8.950;2022-08-19T05:09:31;14.33;;;11.20;;
4726;SDS011;2377;51.734;8.950;2022-08-19T05:11:59;19.90;;;12.80;;
4726;SDS011;2377;51.734;8.950;2022-08-19T05:14:27;17.03;;;13.10;;
4726;SDS011;2377;51.734;8.950;2022-08-19T05:16:54;18.47;;;14.40;;
4726;SDS011;2377;51.734;8.950;2022-08-19T05:19:21;20.03;;;13.70;;
4726;SDS011;2377;51.734;8.950;2022-08-19T05:22:05;18.77;;;15.67;;
4726;SDS011;2377;51.734;8.950;2022-08-19T05:24:50;23.67;;;16.40;;
4726;SDS011;2377;51.734;8.950;2022-08-19T05:27:19;24.03;;;18.40;;
4726;SDS011;2377;51.734;8.950;2022-08-19T05:29:46;28.17;;;21.20;;
4726;SDS011;2377;51.734;8.950;2022-08-19T05:32:13;23.47;;;18.10;;
4726;SDS011;2377;51.734;8.950;2022-08-19T05:34:40;30.80;;;20.90;;
4726;SDS011;2377;51.734;8.950;2022-08-19T05:37:07;25.90;;;18.77;;
4726;SDS011;2377;51.734;8.950;2022-08-19T05:39:35;28.77;;;20.03;;
4726;SDS011;2377;51.734;8.950;2022-08-19T05:42:04;26.40;;;20.07;;
4726;SDS011;2377;51.734;8.950;2022-08-19T05:44:36;31.90;;;22.37;;
4726;SDS011;2377;51.734;8.950;2022-08-19T05:47:09;41.53;;;25.73;;
4726;SDS011;2377;51.734;8.950;2022-08-19T05:49:40;37.00;;;22.23;;
4726;SDS011;2377;51.734;8.950;2022-08-19T05:52:08;30.60;;;20.93;;
4726;SDS011;2377;51.734;8.950;2022-08-19T05:54:40;30.77;;;21.00;;
4726;SDS011;2377;51.734;8.950;2022-08-19T05:57:10;32.20;;;21.90;;
4726;SDS011;2377;51.734;8.950;2022-08-19T05:59:38;30.03;;;21.40;;
4726;SDS011;2377;51.734;8.950;2022-08-19T06:02:06;36.90;;;24.07;;
4726;SDS011;2377;51.734;8.950;2022-08-19T06:04:35;30.70;;;22.27;;
4726;SDS011;2377;51.734;8.950;2022-08-19T06:07:02;39.83;;;24.03;;
4726;SDS011;2377;51.734;8.950;2022-08-19T06:09:29;31.97;;;23.33;;
4726;SDS011;2377;51.734;8.950;2022-08-19T06:11:57;36.03;;;23.87;;
4726;SDS011;2377;51.734;8.950;2022-08-19T06:14:27;26.10;;;19.03;;
4726;SDS011;2377;51.734;8.950;2022-08-19T06:16:58;28.40;;;19.53;;
4726;SDS011;2377;51.734;8.950;2022-08-19T06:19:27;27.90;;;20.00;;
4726;SDS011;2377;51.734;8.950;2022-08-19T06:21:56;33.33;;;21.87;;
4726;SDS011;2377;51.734;8.950;2022-08-19T06:24:25;29.13;;;21.00;;
4726;SDS011;2377;51.734;8.950;2022-08-19T06:26:55;27.40;;;19.27;;
4726;SDS011;2377;51.734;8.950;2022-08-19T06:29:26;24.43;;;18.20;;
4726;SDS011;2377;51.734;8.950;2022-08-19T06:31:56;23.87;;;17.30;;
4726;SDS011;2377;51.734;8.950;2022-08-19T06:34:29;25.80;;;18.40;;
4726;SDS011;2377;51.734;8.950;2022-08-19T06:37:00;32.53;;;22.57;;
4726;SDS011;2377;51.734;8.950;2022-08-19T06:39:29;35.90;;;23.90;;
4726;SDS011;2377;51.734;8.950;2022-08-19T06:42:01;36.77;;;21.93;;
4726;SDS011;2377;51.734;8.950;2022-08-19T06:44:34;41.53;;;25.83;;
4726;SDS011;2377;51.734;8.950;2022-08-19T06:47:06;36.63;;;24.27;;
4726;SDS011;2377;51.734;8.950;2022-08-19T06:49:36;40.17;;;26.93;;
4726;SDS011;2377;51.734;8.950;2022-08-19T06:52:03;41.97;;;26.97;;
4726;SDS011;2377;51.734;8.950;2022-08-19T06:54:31;40.20;;;26.07;;
4726;SDS011;2377;51.734;8.950;2022-08-19T06:56:59;32.40;;;22.50;;
4726;SDS011;2377;51.734;8.950;2022-08-19T06:59:28;37.63;;;23.63;;
4726;SDS011;2377;51.734;8.950;2022-08-19T07:01:58;32.60;;;23.97;;
4726;SDS011;2377;51.734;8.950;2022-08-19T07:04:32;31.90;;;23.20;;
4726;SDS011;2377;51.734;8.950;2022-08-19T07:07:05;37.93;;;24.17;;
4726;SDS011;2377;51.734;8.950;2022-08-19T07:09:35;32.27;;;22.50;;
4726;SDS011;2377;51.734;8.950;2022-08-19T07:12:05;34.27;;;24.47;;
4726;SDS011;2377;51.734;8.950;2022-08-19T07:14:36;33.73;;;23.77;;
4726;SDS011;2377;51.734;8.950;2022-08-19T07:17:05;27.73;;;21.07;;
4726;SDS011;2377;51.734;8.950;2022-08-19T07:19:36;31.63;;;21.60;;
4726;SDS011;2377;51.734;8.950;2022-08-19T07:22:05;28.77;;;19.87;;
4726;SDS011;2377;51.734;8.950;2022-08-19T07:24:33;28.10;;;20.87;;
4726;SDS011;2377;51.734;8.950;2022-08-19T07:27:02;27.27;;;19.03;;
4726;SDS011;2377;51.734;8.950;2022-08-19T07:29:32;25.63;;;18.30;;
4726;SDS011;2377;51.734;8.950;2022-08-19T07:32:02;25.10;;;17.33;;
4726;SDS011;2377;51.734;8.950;2022-08-19T07:34:31;23.37;;;18.63;;
4726;SDS011;2377;51.734;8.950;2022-08-19T07:37:02;22.17;;;15.50;;
4726;SDS011;2377;51.734;8.950;2022-08-19T07:39:31;19.20;;;13.90;;
4726;SDS011;2377;51.734;8.950;2022-08-19T07:42:02;18.60;;;13.30;;
4726;SDS011;2377;51.734;8.950;2022-08-19T07:44:33;16.50;;;11.67;;
4726;SDS011;2377;51.734;8.950;2022-08-19T07:47:00;17.10;;;13.30;;
4726;SDS011;2377;51.734;8.950;2022-08-19T07:49:29;15.53;;;11.03;;
4726;SDS011;2377;51.734;8.950;2022-08-19T07:51:57;15.10;;;11.80;;
4726;SDS011;2377;51.734;8.950;2022-08-19T07:54:31;17.37;;;11.60;;
4726;SDS011;2377;51.734;8.950;2022-08-19T07:57:02;15.13;;;11.07;;
4726;SDS011;2377;51.734;8.950;2022-08-19T07:59:30;12.00;;;9.57;;
4726;SDS011;2377;51.734;8.950;2022-08-19T08:01:58;10.90;;;8.90;;
4726;SDS011;2377;51.734;8.950;2022-08-19T08:04:25;11.40;;;9.60;;
4726;SDS011;2377;51.734;8.950;2022-08-19T08:07:11;13.23;;;9.70;;
4726;SDS011;2377;51.734;8.950;2022-08-19T08:09:57;12.43;;;9.47;;
4726;SDS011;2377;51.734;8.950;2022-08-19T08:12:26;12.17;;;8.20;;
4726;SDS011;2377;51.734;8.950;2022-08-19T08:14:58;13.13;;;9.67;;
4726;SDS011;2377;51.734;8.950;2022-08-19T08:17:28;13.90;;;9.90;;
4726;SDS011;2377;51.734;8.950;2022-08-19T08:19:57;10.93;;;8.50;;
4726;SDS011;2377;51.734;8.950;2022-08-19T08:22:25;14.80;;;10.40;;
4726;SDS011;2377;51.734;8.950;2022-08-19T08:25:12;12.67;;;9.90;;
4726;SDS011;2377;51.734;8.950;2022-08-19T08:27:44;13.63;;;9.30;;
4726;SDS011;2377;51.734;8.950;2022-08-19T08:30:13;17.50;;;11.53;;
4726;SDS011;2377;51.734;8.950;2022-08-19T08:32:44;17.10;;;12.53;;
4726;SDS011;2377;51.734;8.950;2022-08-19T08:35:13;19.00;;;13.97;;
4726;SDS011;2377;51.734;8.950;2022-08-19T08:37:43;17.33;;;13.50;;
4726;SDS011;2377;51.734;8.950;2022-08-19T08:40:16;14.20;;;11.90;;
4726;SDS011;2377;51.734;8.950;2022-08-19T08:42:51;16.13;;;13.20;;
4726;SDS011;2377;51.734;8.950;2022-08-19T08:45:29;16.60;;;13.47;;
4726;SDS011;2377;51.734;8.950;2022-08-19T08:48:01;20.67;;;15.60;;
4726;SDS011;2377;51.734;8.950;2022-08-19T08:50:39;19.13;;;13.50;;
4726;SDS011;2377;51.734;8.950;2022-08-19T08:53:12;12.77;;;11.33;;
4726;SDS011;2377;51.734;8.950;2022-08-19T08:55:45;16.30;;;11.97;;
4726;SDS011;2377;51.734;8.950;2022-08-19T08:58:15;14.27;;;11.00;;
4726;SDS011;2377;51.734;8.950;2022-08-19T09:00:51;16.03;;;12.70;;
4726;SDS011;2377;51.734;8.950;2022-08-19T09:03:19;14.23;;;10.90;;
4726;SDS011;2377;51.734;8.950;2022-08-19T09:05:54;17.30;;;11.17;;
4726;SDS011;2377;51.734;8.950;2022-08-19T09:08:43;18.40;;;13.50;;
4726;SDS011;2377;51.734;8.950;2022-08-19T09:11:25;13.93;;;11.27;;
4726;SDS011;2377;51.734;8.950;2022-08-19T09:14:13;13.03;;;10.07;;
4726;SDS011;2377;51.734;8.950;2022-08-19T09:16:58;19.80;;;11.20;;
4726;SDS011;2377;51.734;8.950;2022-08-19T09:19:28;13.07;;;9.20;;
4726;SDS011;2377;51.734;8.950;2022-08-19T09:21:56;13.07;;;9.90;;
4726;SDS011;2377;51.734;8.950;2022-08-19T09:24:25;12.13;;;9.20;;
4726;SDS011;2377;51.734;8.950;2022-08-19T09:26:54;15.93;;;12.07;;
4726;SDS011;2377;51.734;8.950;2022-08-19T09:29:21;12.33;;;10.03;;
4726;SDS011;2377;51.734;8.950;2022-08-19T09:31:48;12.60;;;8.93;;
4726;SDS011;2377;51.734;8.950;2022-08-19T09:34:15;14.27;;;10.53;;
4726;SDS011;2377;51.734;8.950;2022-08-19T09:36:44;12.33;;;9.47;;
4726;SDS011;2377;51.734;8.950;2022-08-19T09:39:12;11.63;;;8.60;;
4726;SDS011;2377;51.734;8.950;2022-08-19T09:41:39;10.57;;;8.13;;
4726;SDS011;2377;51.734;8.950;2022-08-19T09:44:07;10.90;;;7.80;;
4726;SDS011;2377;51.734;8.950;2022-08-19T09:46:36;10.00;;;7.90;;
4726;SDS011;2377;51.734;8.950;2022-08-19T09:49:03;9.60;;;7.00;;
4726;SDS011;2377;51.734;8.950;2022-08-19T09:51:31;10.90;;;7.30;;
4726;SDS011;2377;51.734;8.950;2022-08-19T09:54:00;8.13;;;6.90;;
4726;SDS011;2377;51.734;8.950;2022-08-19T09:56:29;6.93;;;4.87;;
4726;SDS011;2377;51.734;8.950;2022-08-19T09:58:57;6.60;;;4.47;;
4726;SDS011;2377;51.734;8.950;2022-08-19T10:01:27;7.20;;;4.77;;
4726;SDS011;2377;51.734;8.950;2022-08-19T10:03:56;6.20;;;4.30;;
4726;SDS011;2377;51.734;8.950;2022-08-19T10:06:27;6.53;;;3.97;;
4726;SDS011;2377;51.734;8.950;2022-08-19T10:08:57;4.50;;;3.37;;
4726;SDS011;2377;51.734;8.950;2022-08-19T10:11:25;4.97;;;3.20;;
4726;SDS011;2377;51.734;8.950;2022-08-19T10:13:53;5.23;;;3.97;;
4726;SDS011;2377;51.734;8.950;2022-08-19T10:16:21;4.13;;;2.90;;
4726;SDS011;2377;51.734;8.950;2022-08-19T10:18:52;6.33;;;3.30;;
4726;SDS011;2377;51.734;8.950;2022-08-19T10:21:21;6.33;;;3.83;;
4726;SDS011;2377;51.734;8.950;2022-08-19T10:23:53;5.13;;;3.27;;
4726;SDS011;2377;51.734;8.950;2022-08-19T10:26:23;6.87;;;3.33;;
4726;SDS011;2377;51.734;8.950;2022-08-19T10:28:52;5.93;;;3.80;;
4726;SDS011;2377;51.734;8.950;2022-08-19T10:31:21;6.63;;;3.77;;
4726;SDS011;2377;51.734;8.950;2022-08-19T10:33:57;4.50;;;3.00;;
4726;SDS011;2377;51.734;8.950;2022-08-19T10:36:26;7.10;;;4.07;;
4726;SDS011;2377;51.734;8.950;2022-08-19T10:38:57;5.93;;;4.20;;
4726;SDS011;2377;51.734;8.950;2022-08-19T10:41:30;5.20;;;4.33;;
4726;SDS011;2377;51.734;8.950;2022-08-19T10:44:02;5.80;;;3.20;;
4726;SDS011;2377;51.734;8.950;2022-08-19T10:46:34;4.50;;;3.97;;
4726;SDS011;2377;51.734;8.950;2022-08-19T10:49:07;5.20;;;3.77;;
4726;SDS011;2377;51.734;8.950;2022-08-19T10:51:37;4.60;;;3.13;;
4726;SDS011;2377;51.734;8.950;2022-08-19T10:54:22;5.50;;;3.20;;
4726;SDS011;2377;51.734;8.950;2022-08-19T10:57:11;6.20;;;3.10;;
4726;SDS011;2377;51.734;8.950;2022-08-19T10:59:37;4.03;;;2.83;;
4726;SDS011;2377;51.734;8.950;2022-08-19T11:02:05;4.87;;;3.10;;
4726;SDS011;2377;51.734;8.950;2022-08-19T11:04:38;5.33;;;3.00;;
4726;SDS011;2377;51.734;8.950;2022-08-19T11:07:07;5.70;;;3.40;;
4726;SDS011;2377;51.734;8.950;2022-08-19T11:09:37;4.13;;;2.80;;
4726;SDS011;2377;51.734;8.950;2022-08-19T11:12:07;5.93;;;3.60;;
4726;SDS011;2377;51.734;8.950;2022-08-19T11:14:37;4.60;;;2.90;;
4726;SDS011;2377;51.734;8.950;2022-08-19T11:17:05;5.20;;;3.10;;
4726;SDS011;2377;51.734;8.950;2022-08-19T11:19:32;5.43;;;3.20;;
4726;SDS011;2377;51.734;8.950;2022-08-19T11:22:02;6.53;;;3.20;;
4726;SDS011;2377;51.734;8.950;2022-08-19T11:24:30;5.07;;;2.90;;
4726;SDS011;2377;51.734;8.950;2022-08-19T11:27:00;4.53;;;3.40;;
4726;SDS011;2377;51.734;8.950;2022-08-19T11:29:31;4.70;;;3.40;;
4726;SDS011;2377;51.734;8.950;2022-08-19T11:31:59;5.43;;;3.10;;
4726;SDS011;2377;51.734;8.950;2022-08-19T11:34:30;4.50;;;2.83;;
4726;SDS011;2377;51.734;8.950;2022-08-19T11:36:57;5.03;;;2.93;;
4726;SDS011;2377;51.734;8.950;2022-08-19T11:39:27;4.23;;;2.67;;
4726;SDS011;2377;51.734;8.950;2022-08-19T11:41:57;4.53;;;3.07;;
4726;SDS011;2377;51.734;8.950;2022-08-19T11:44:26;5.23;;;3.33;;
4726;SDS011;2377;51.734;8.950;2022-08-19T11:46:55;4.20;;;2.90;;
4726;SDS011;2377;51.734;8.950;2022-08-19T11:49:25;5.27;;;3.30;;
4726;SDS011;2377;51.734;8.950;2022-08-19T11:51:52;3.50;;;2.60;;
4726;SDS011;2377;51.734;8.950;2022-08-19T11:54:19;9.73;;;3.83;;
4726;SDS011;2377;51.734;8.950;2022-08-19T11:56:48;5.90;;;3.30;;
4726;SDS011;2377;51.734;8.950;2022-08-19T11:59:15;5.80;;;3.10;;
4726;SDS011;2377;51.734;8.950;2022-08-19T12:01:42;5.60;;;3.40;;
4726;SDS011;2377;51.734;8.950;2022-08-19T12:04:09;6.90;;;3.80;;
4726;SDS011;2377;51.734;8.950;2022-08-19T12:06:37;5.80;;;3.20;;
4726;SDS011;2377;51.734;8.950;2022-08-19T12:09:07;4.80;;;3.60;;
4726;SDS011;2377;51.734;8.950;2022-08-19T12:11:37;5.63;;;3.57;;
4726;SDS011;2377;51.734;8.950;2022-08-19T12:14:08;5.97;;;4.03;;
4726;SDS011;2377;51.734;8.950;2022-08-19T12:16:39;6.13;;;2.93;;
4726;SDS011;2377;51.734;8.950;2022-08-19T12:19:07;6.10;;;3.50;;
4726;SDS011;2377;51.734;8.950;2022-08-19T12:21:35;4.10;;;3.00;;
4726;SDS011;2377;51.734;8.950;2022-08-19T12:24:03;4.40;;;2.90;;
4726;SDS011;2377;51.734;8.950;2022-08-19T12:26:32;8.60;;;2.90;;
4726;SDS011;2377;51.734;8.950;2022-08-19T12:29:00;4.50;;;2.70;;
4726;SDS011;2377;51.734;8.950;2022-08-19T12:31:28;5.03;;;2.90;;
4726;SDS011;2377;51.734;8.950;2022-08-19T12:33:55;5.53;;;3.20;;
4726;SDS011;2377;51.734;8.950;2022-08-19T12:36:23;4.30;;;3.23;;
4726;SDS011;2377;51.734;8.950;2022-08-19T12:38:51;4.70;;;2.80;;
4726;SDS011;2377;51.734;8.950;2022-08-19T12:41:19;5.80;;;3.10;;
4726;SDS011;2377;51.734;8.950;2022-08-19T12:43:48;4.83;;;2.80;;
4726;SDS011;2377;51.734;8.950;2022-08-19T12:46:16;6.07;;;3.27;;
4726;SDS011;2377;51.734;8.950;2022-08-19T12:48:47;3.90;;;3.20;;
4726;SDS011;2377;51.734;8.950;2022-08-19T12:51:15;3.90;;;3.00;;
4726;SDS011;2377;51.734;8.950;2022-08-19T12:53:44;6.00;;;2.47;;
4726;SDS011;2377;51.734;8.950;2022-08-19T12:56:12;5.23;;;2.90;;
4726;SDS011;2377;51.734;8.950;2022-08-19T12:58:40;4.80;;;3.30;;
4726;SDS011;2377;51.734;8.950;2022-08-19T13:01:09;5.53;;;3.00;;
4726;SDS011;2377;51.734;8.950;2022-08-19T13:03:40;4.20;;;2.90;;
4726;SDS011;2377;51.734;8.950;2022-08-19T13:06:09;5.77;;;3.00;;
4726;SDS011;2377;51.734;8.950;2022-08-19T13:08:36;3.87;;;3.00;;
4726;SDS011;2377;51.734;8.950;2022-08-19T13:11:08;4.60;;;2.53;;
4726;SDS011;2377;51.734;8.950;2022-08-19T13:13:38;4.80;;;2.83;;
4726;SDS011;2377;51.734;8.950;2022-08-19T13:16:07;3.63;;;2.50;;
4726;SDS011;2377;51.734;8.950;2022-08-19T13:18:36;5.00;;;2.70;;
4726;SDS011;2377;51.734;8.950;2022-08-19T13:21:05;7.13;;;2.93;;
4726;SDS011;2377;51.734;8.950;2022-08-19T13:23:38;4.83;;;2.53;;
4726;SDS011;2377;51.734;8.950;2022-08-19T13:26:07;5.43;;;2.90;;
4726;SDS011;2377;51.734;8.950;2022-08-19T13:28:36;3.57;;;2.57;;
4726;SDS011;2377;51.734;8.950;2022-08-19T13:31:22;4.73;;;2.97;;
4726;SDS011;2377;51.734;8.950;2022-08-19T13:34:09;5.67;;;2.67;;
4726;SDS011;2377;51.734;8.950;2022-08-19T13:36:38;7.40;;;2.90;;
4726;SDS011;2377;51.734;8.950;2022-08-19T13:39:06;3.23;;;2.40;;
4726;SDS011;2377;51.734;8.950;2022-08-19T13:41:34;5.00;;;2.80;;
4726;SDS011;2377;51.734;8.950;2022-08-19T13:44:02;4.70;;;2.60;;
4726;SDS011;2377;51.734;8.950;2022-08-19T13:46:31;4.13;;;2.50;;
4726;SDS011;2377;51.734;8.950;2022-08-19T13:48:58;3.43;;;2.53;;
4726;SDS011;2377;51.734;8.950;2022-08-19T13:51:25;4.03;;;2.53;;
4726;SDS011;2377;51.734;8.950;2022-08-19T13:53:53;4.17;;;3.07;;
4726;SDS011;2377;51.734;8.950;2022-08-19T13:56:21;4.87;;;2.77;;
4726;SDS011;2377;51.734;8.950;2022-08-19T13:58:48;7.63;;;2.33;;
4726;SDS011;2377;51.734;8.950;2022-08-19T14:01:18;4.33;;;2.80;;
4726;SDS011;2377;51.734;8.950;2022-08-19T14:03:47;3.60;;;2.50;;
4726;SDS011;2377;51.734;8.950;2022-08-19T14:06:15;3.77;;;2.50;;
4726;SDS011;2377;51.734;8.950;2022-08-19T14:08:43;4.33;;;2.97;;
4726;SDS011;2377;51.734;8.950;2022-08-19T14:11:12;4.03;;;2.90;;
4726;SDS011;2377;51.734;8.950;2022-08-19T14:13:39;3.77;;;2.80;;
4726;SDS011;2377;51.734;8.950;2022-08-19T14:16:07;4.20;;;2.70;;
4726;SDS011;2377;51.734;8.950;2022-08-19T14:18:35;4.20;;;2.63;;
4726;SDS011;2377;51.734;8.950;2022-08-19T14:21:04;3.60;;;2.30;;
4726;SDS011;2377;51.734;8.950;2022-08-19T14:23:33;3.77;;;2.47;;
4726;SDS011;2377;51.734;8.950;2022-08-19T14:26:07;4.57;;;2.83;;
4726;SDS011;2377;51.734;8.950;2022-08-19T14:28:38;4.70;;;2.77;;
4726;SDS011;2377;51.734;8.950;2022-08-19T14:31:07;4.80;;;2.70;;
4726;SDS011;2377;51.734;8.950;2022-08-19T14:33:34;3.63;;;2.63;;
4726;SDS011;2377;51.734;8.950;2022-08-19T14:36:01;4.10;;;2.87;;
4726;SDS011;2377;51.734;8.950;2022-08-19T14:38:29;3.37;;;2.47;;
4726;SDS011;2377;51.734;8.950;2022-08-19T14:41:05;4.23;;;2.90;;
4726;SDS011;2377;51.734;8.950;2022-08-19T14:43:35;4.07;;;2.83;;
4726;SDS011;2377;51.734;8.950;2022-08-19T14:46:04;3.47;;;2.73;;
4726;SDS011;2377;51.734;8.950;2022-08-19T14:48:32;4.80;;;3.00;;
4726;SDS011;2377;51.734;8.950;2022-08-19T14:50:59;5.43;;;3.03;;
4726;SDS011;2377;51.734;8.950;2022-08-19T14:53:26;3.73;;;2.60;;
4726;SDS011;2377;51.734;8.950;2022-08-19T14:55:53;4.30;;;2.60;;
4726;SDS011;2377;51.734;8.950;2022-08-19T14:58:20;4.63;;;2.87;;
4726;SDS011;2377;51.734;8.950;2022-08-19T15:00:47;4.43;;;2.80;;
4726;SDS011;2377;51.734;8.950;2022-08-19T15:03:16;3.53;;;2.77;;
4726;SDS011;2377;51.734;8.950;2022-08-19T15:05:43;3.63;;;2.63;;
4726;SDS011;2377;51.734;8.950;2022-08-19T15:08:11;4.70;;;2.83;;
4726;SDS011;2377;51.734;8.950;2022-08-19T15:10:38;3.37;;;2.57;;
4726;SDS011;2377;51.734;8.950;2022-08-19T15:13:05;5.60;;;2.57;;
4726;SDS011;2377;51.734;8.950;2022-08-19T15:15:34;3.23;;;2.43;;
4726;SDS011;2377;51.734;8.950;2022-08-19T15:18:02;5.13;;;2.90;;
4726;SDS011;2377;51.734;8.950;2022-08-19T15:20:31;6.73;;;3.10;;